Ora Direzione Vento Velocita' Vento Media Vento Raffica Max. Temperatura Wind Chill Pioggia Pressione
01:17:08.0317 °(NW)3.1 Kts1.9 Kts3.7 Kts24.2 °C24.2 °C0.0 mm1019.0 Hpa
00:56:53.0317 °(NW)2.1 Kts0.8 Kts2.7 Kts23.8 °C23.8 °C0.0 mm1019.0 Hpa
00:35:38.0317 °(NW)2.1 Kts1.9 Kts2.7 Kts23.7 °C23.7 °C0.0 mm1019.0 Hpa
00:16:05.0317 °(NW)1.6 Kts1.2 Kts2.1 Kts23.8 °C23.8 °C0.0 mm1019.0 Hpa
23:56:16.0317 °(NW)1.9 Kts1.9 Kts15.4 Kts24.3 °C24.3 °C0.0 mm1019.0 Hpa
23:35:53.0316 °(NW)2.1 Kts2.1 Kts15.4 Kts24.8 °C24.8 °C0.0 mm1019.0 Hpa
23:16:58.0296 °(WNW)3.1 Kts0.8 Kts15.4 Kts25.2 °C25.2 °C0.0 mm1019.0 Hpa
22:55:44.0316 °(NW)2.7 Kts1.9 Kts15.4 Kts25.7 °C25.7 °C0.0 mm1019.0 Hpa
22:35:47.0324 °(NW)2.1 Kts1.6 Kts15.4 Kts25.7 °C25.7 °C0.0 mm1019.0 Hpa
22:16:50.0324 °(NW)3.7 Kts1.6 Kts15.4 Kts26.0 °C26.0 °C0.0 mm1019.0 Hpa
21:56:20.0297 °(WNW)3.7 Kts2.1 Kts15.4 Kts26.4 °C26.4 °C0.0 mm1019.0 Hpa
21:35:48.0312 °(NW)3.9 Kts3.7 Kts15.4 Kts26.3 °C26.3 °C0.0 mm1019.0 Hpa
21:16:48.0317 °(NW)3.5 Kts1.0 Kts15.4 Kts26.3 °C26.3 °C0.0 mm1019.0 Hpa
20:56:03.0297 °(WNW)6.6 Kts5.4 Kts15.4 Kts26.5 °C26.5 °C0.0 mm1019.0 Hpa
20:37:08.0321 °(NW)7.0 Kts5.4 Kts15.4 Kts26.8 °C26.8 °C0.0 mm1019.0 Hpa
20:16:36.0309 °(NW)7.8 Kts7.8 Kts15.4 Kts27.3 °C27.3 °C0.0 mm1019.0 Hpa
19:55:59.0316 °(NW)7.8 Kts6.6 Kts15.4 Kts28.0 °C28.0 °C0.0 mm1019.0 Hpa
19:37:07.0324 °(NW)8.9 Kts6.8 Kts15.4 Kts28.3 °C28.3 °C0.0 mm1019.0 Hpa
19:15:48.0283 °(WNW)8.9 Kts5.6 Kts15.4 Kts26.9 °C26.9 °C0.0 mm1019.0 Hpa
18:57:05.0295 °(WNW)10.1 Kts9.3 Kts15.4 Kts27.0 °C27.0 °C0.0 mm1019.0 Hpa